Time;durP1;ratioP1;P1;durP2;ratioP2;P2;SDS_P1;SDS_P2;PMS_P1;PMS_P2;Temp;Humidity;BMP_temperature;BMP_pressure;BME280_temperature;BME280_humidity;BME280_pressure;Samples;Min_cycle;Max_cycle;Signal;HPM_P1;HPM_P2
2021/01/27 00:03:35;;;;;;;20.03;11.47;;;;;;;0.27;97.66;99703.56;10456847;28;20264;-56
2021/01/27 00:08:35;;;;;;;20.10;10.57;;;;;;;0.31;98.40;99718.31;10457272;28;20183;-56
2021/01/27 00:13:35;;;;;;;18.03;9.57;;;;;;;0.30;98.99;99716.59;10456173;28;20214;-56
2021/01/27 00:18:36;;;;;;;20.53;10.50;;;;;;;0.31;99.58;99709.59;10457008;28;20541;-56
2021/01/27 00:23:36;;;;;;;15.77;8.90;;;;;;;0.33;99.66;99708.63;10456017;28;20178;-56
2021/01/27 00:28:37;;;;;;;26.13;11.50;;;;;;;0.33;99.63;99699.91;10456471;28;20172;-56
2021/01/27 00:33:37;;;;;;;20.87;11.93;;;;;;;0.34;98.77;99693.75;10455534;28;20223;-56
2021/01/27 00:38:38;;;;;;;24.03;12.13;;;;;;;0.32;98.98;99691.19;10455284;28;20252;-56
2021/01/27 00:43:38;;;;;;;24.73;13.10;;;;;;;0.33;99.85;99700.78;10455157;28;20202;-56
2021/01/27 00:48:39;;;;;;;22.17;10.13;;;;;;;0.29;100.00;99707.00;10455680;28;20194;-56
2021/01/27 00:53:41;;;;;;;22.77;11.87;;;;;;;0.25;100.00;99705.38;10454468;28;20243;-57
2021/01/27 00:58:41;;;;;;;12.93;7.37;;;;;;;0.23;100.00;99681.00;10455367;28;20259;-56
2021/01/27 01:03:42;;;;;;;21.07;9.07;;;;;;;0.24;100.00;99698.41;10455079;28;20263;-56
2021/01/27 01:08:42;;;;;;;22.97;12.07;;;;;;;0.24;100.00;99682.69;10436630;28;20191;-56
2021/01/27 01:13:43;;;;;;;13.10;6.40;;;;;;;0.26;100.00;99696.59;10454495;28;20294;-56
2021/01/27 01:18:43;;;;;;;16.10;9.47;;;;;;;0.29;100.00;99691.28;10454774;28;20205;-56
2021/01/27 01:23:44;;;;;;;19.03;9.87;;;;;;;0.27;100.00;99698.31;10453682;28;20230;-56
2021/01/27 01:28:44;;;;;;;24.57;12.33;;;;;;;0.29;100.00;99691.28;10454478;28;20262;-56
2021/01/27 01:33:45;;;;;;;19.97;10.43;;;;;;;0.32;100.00;99693.81;10453902;28;20214;-56
2021/01/27 01:38:45;;;;;;;22.17;11.10;;;;;;;0.36;100.00;99703.28;10453998;28;20532;-56
2021/01/27 01:43:46;;;;;;;19.80;9.70;;;;;;;0.35;100.00;99696.34;10453888;28;20180;-56
2021/01/27 01:48:50;;;;;;;17.13;9.80;;;;;;;0.39;100.00;99683.94;10452985;28;20187;-56
2021/01/27 01:53:53;;;;;;;18.23;8.00;;;;;;;0.38;100.00;99700.59;10452805;28;20239;-56
2021/01/27 01:58:56;;;;;;;17.33;8.97;;;;;;;0.36;100.00;99700.66;10435825;28;20176;-56
2021/01/27 02:03:57;;;;;;;20.10;10.47;;;;;;;0.30;99.87;99679.00;10452854;28;20759;-56
2021/01/27 02:08:59;;;;;;;18.83;10.60;;;;;;;0.41;100.00;99702.28;10452677;28;20228;-56
2021/01/27 02:14:25;;;;;;;22.57;11.50;;;;;;;0.42;100.00;99694.34;10452901;28;20214;-56
2021/01/27 02:19:34;;;;;;;9.93;5.83;;;;;;;0.42;99.21;99696.97;10453202;28;20171;-57
2021/01/27 02:24:59;;;;;;;17.47;10.00;;;;;;;0.43;98.87;99697.84;10453116;28;20180;-57
2021/01/27 02:30:24;;;;;;;16.93;9.13;;;;;;;0.43;98.77;99700.47;10452434;28;20873;-57
2021/01/27 02:35:37;;;;;;;17.30;9.73;;;;;;;0.43;98.34;99703.09;10452886;28;20273;-57
2021/01/27 02:41:08;;;;;;;16.30;9.73;;;;;;;0.40;98.76;99687.44;10452213;28;20168;-58
2021/01/27 02:46:17;;;;;;;13.37;7.47;;;;;;;0.45;98.36;99698.66;10451712;28;20664;-57
2021/01/27 02:51:23;;;;;;;14.73;7.90;;;;;;;0.49;97.47;99702.88;10451586;28;20223;-57
2021/01/27 02:56:31;;;;;;;16.10;9.67;;;;;;;0.50;97.13;99694.09;10434662;28;20173;-57
2021/01/27 03:01:34;;;;;;;12.20;8.33;;;;;;;0.52;97.00;99708.03;10456451;28;20180;-56
2021/01/27 03:06:35;;;;;;;11.43;6.90;;;;;;;0.49;96.33;99716.00;10441493;28;20648;-57
2021/01/27 03:11:36;;;;;;;14.10;7.47;;;;;;;0.48;96.75;99706.44;10441768;28;20172;-57
2021/01/27 03:16:51;;;;;;;12.63;7.70;;;;;;;0.46;95.86;99714.34;10459268;28;20183;-56
2021/01/27 03:21:59;;;;;;;10.17;6.30;;;;;;;0.47;95.41;99726.56;10440639;28;20183;-57
2021/01/27 03:27:08;;;;;;;12.83;7.23;;;;;;;0.42;96.31;99714.50;10458326;28;20719;-56
2021/01/27 03:32:16;;;;;;;9.77;5.70;;;;;;;0.43;95.27;99730.19;10440871;28;20208;-57
2021/01/27 03:37:34;;;;;;;13.30;6.73;;;;;;;0.46;94.69;99737.09;10458509;28;20180;-57
2021/01/27 03:42:58;;;;;;;10.67;5.57;;;;;;;0.46;94.44;99732.72;10457446;28;20190;-57
2021/01/27 03:48:29;;;;;;;11.50;5.87;;;;;;;0.47;93.44;99746.72;10407719;28;20208;-57
2021/01/27 03:53:31;;;;;;;9.53;6.47;;;;;;;0.48;93.05;99738.78;10421641;28;20244;-56
2021/01/27 03:58:39;;;;;;;9.47;6.17;;;;;;;0.48;93.46;99744.03;10424112;28;20219;-56
2021/01/27 04:03:39;;;;;;;9.07;5.50;;;;;;;0.49;93.46;99734.34;10426250;28;20184;-59
2021/01/27 04:08:40;;;;;;;8.03;4.07;;;;;;;0.27;92.81;99703.56;10428912;28;20195;-57
2021/01/27 04:13:40;;;;;;;7.03;4.57;;;;;;;0.47;92.74;99746.72;10424769;28;20222;-58
2021/01/27 04:18:41;;;;;;;13.17;6.07;;;;;;;0.43;93.15;99755.56;10427227;28;20176;-58
2021/01/27 04:23:41;;;;;;;16.53;7.17;;;;;;;0.42;93.13;99738.09;10420934;28;20191;-56
2021/01/27 04:28:42;;;;;;;11.23;6.60;;;;;;;0.42;93.80;99738.09;10426313;28;20235;-56
2021/01/27 04:33:43;;;;;;;16.87;7.57;;;;;;;0.40;94.41;99739.91;10423961;28;20639;-56
2021/01/27 04:38:44;;;;;;;12.03;6.30;;;;;;;0.36;94.59;99742.63;10406497;28;20711;-57
2021/01/27 04:43:47;;;;;;;8.70;5.67;;;;;;;0.33;94.56;99745.38;10423122;28;20196;-56
2021/01/27 04:49:12;;;;;;;11.33;5.57;;;;;;;0.32;94.81;99732.31;10425445;28;20196;-56
2021/01/27 04:54:25;;;;;;;10.70;5.87;;;;;;;0.34;94.84;99741.84;10422608;28;20242;-57
2021/01/27 04:59:46;;;;;;;8.83;4.73;;;;;;;0.31;95.54;99752.44;10408349;28;20203;-56
2021/01/27 05:05:00;;;;;;;7.70;4.83;;;;;;;0.26;94.10;99749.09;10404066;28;20248;-56
2021/01/27 05:10:01;;;;;;;5.53;4.20;;;;;;;0.24;93.87;99745.66;10425982;28;20192;-56
2021/01/27 05:15:03;;;;;;;7.43;4.17;;;;;;;-0.01;93.55;99706.25;10422326;28;20869;-56
2021/01/27 05:20:04;;;;;;;9.37;5.00;;;;;;;0.27;93.20;99750.81;10407375;28;20845;-57
2021/01/27 05:25:28;;;;;;;5.07;3.93;;;;;;;0.24;92.59;99745.66;10419294;28;20187;-57
2021/01/27 05:30:32;;;;;;;4.97;3.30;;;;;;;0.27;91.12;99752.56;10423146;28;21544;-56
2021/01/27 05:35:37;;;;;;;5.73;3.40;;;;;;;0.30;90.22;99752.47;10403527;28;20228;-57
2021/01/27 05:40:37;;;;;;;6.70;3.33;;;;;;;0.30;89.64;99761.22;10424676;28;20235;-57
2021/01/27 05:45:48;;;;;;;3.10;2.57;;;;;;;0.31;89.11;99752.44;10416850;28;20200;-57
2021/01/27 05:50:52;;;;;;;3.63;2.13;;;;;;;0.32;89.04;99774.28;10425037;28;20190;-57
2021/01/27 05:56:26;;;;;;;3.53;2.20;;;;;;;0.11;88.97;99728.59;10420721;28;20241;-57
2021/01/27 06:01:43;;;;;;;4.33;2.53;;;;;;;0.29;88.15;99772.63;10402309;28;20194;-56
2021/01/27 06:06:47;;;;;;;4.20;2.40;;;;;;;0.27;88.36;99777.03;10407089;28;20542;-56
2021/01/27 06:12:03;;;;;;;4.83;1.83;;;;;;;0.27;87.64;99766.53;10416731;28;20212;-57
2021/01/27 06:17:24;;;;;;;1.70;1.50;;;;;;;0.31;84.33;99773.44;10424257;28;20191;-56
2021/01/27 06:22:49;;;;;;;2.23;1.77;;;;;;;0.32;84.72;99775.16;10388788;28;20184;-56
2021/01/27 06:28:19;;;;;;;1.20;1.10;;;;;;;0.33;85.16;99768.13;10423814;28;20191;-56
2021/01/27 06:33:41;;;;;;;1.30;1.20;;;;;;;0.36;82.64;99787.25;10400616;28;20406;-56
2021/01/27 06:38:57;;;;;;;1.33;1.23;;;;;;;0.38;83.04;99783.72;10430379;28;20261;-65
2021/01/27 06:44:19;;;;;;;1.13;0.90;;;;;;;0.41;81.72;99799.38;10427919;28;20800;-57
2021/01/27 06:49:50;;;;;;;3.20;1.77;;;;;;;0.40;83.27;99797.66;10412096;28;20514;-56
2021/01/27 06:55:35;;;;;;;2.43;1.23;;;;;;;0.40;84.00;99802.91;10422556;28;20236;-56
2021/01/27 07:00:48;;;;;;;2.73;1.90;;;;;;;0.41;83.89;99794.97;10258153;28;20268;-56
2021/01/27 07:06:02;;;;;;;1.70;1.60;;;;;;;0.39;85.22;99806.44;10255080;28;20190;-56
2021/01/27 07:11:45;;;;;;;3.97;1.93;;;;;;;0.40;85.75;99802.91;10260537;28;20207;-56
2021/01/27 07:17:06;;;;;;;1.67;1.57;;;;;;;0.41;85.67;99810.72;10260895;28;20198;-57
2021/01/27 07:22:35;;;;;;;2.57;1.87;;;;;;;0.43;85.06;99814.16;10256557;28;20194;-57
2021/01/27 07:27:42;;;;;;;1.60;0.80;;;;;;;0.48;84.34;99816.66;10260883;28;20357;-57
2021/01/27 07:32:55;;;;;;;2.67;1.20;;;;;;;0.45;83.73;99828.13;10268024;28;20783;-55
2021/01/27 07:38:03;;;;;;;3.95;2.40;;;;;;;0.52;84.50;99824.38;10427046;28;20474;-61
2021/01/27 07:43:27;;;;;;;2.47;1.67;;;;;;;0.42;86.62;99828.19;10425123;28;20203;-57
2021/01/27 07:48:37;;;;;;;1.63;1.53;;;;;;;0.35;87.89;99822.28;10423860;28;20767;-57
2021/01/27 07:53:40;;;;;;;3.53;2.10;;;;;;;0.25;91.12;99826.06;10386953;28;20232;-58
2021/01/27 07:59:03;;;;;;;4.57;2.97;;;;;;;0.20;90.97;99832.38;10427337;28;20208;-58
2021/01/27 08:04:28;;;;;;;6.23;3.53;;;;;;;0.16;93.19;99830.75;10406857;28;20288;-58
2021/01/27 08:09:35;;;;;;;5.10;2.83;;;;;;;0.12;94.55;99835.22;10427986;28;20204;-58
2021/01/27 08:15:09;;;;;;;3.90;3.13;;;;;;;0.09;95.09;99851.06;10423635;28;20290;-59
2021/01/27 09:11:19;;;;;;;2.23;1.57;;;;;;;0.43;85.30;99865.81;10542891;27;21169;-58
2021/01/27 09:16:39;;;;;;;2.53;1.77;;;;;;;0.50;84.44;99889.19;10542178;28;20210;-59
2021/01/27 09:21:40;;;;;;;3.27;2.17;;;;;;;0.55;83.06;99875.94;10507411;28;20557;-60
2021/01/27 09:26:43;;;;;;;3.80;2.30;;;;;;;0.60;83.70;99888.03;10540041;28;20221;-57
2021/01/27 09:31:43;;;;;;;2.13;1.90;;;;;;;0.65;84.82;99885.22;10538867;28;20186;-61
2021/01/27 09:36:44;;;;;;;3.03;1.80;;;;;;;0.67;84.81;99884.28;10541313;28;20219;-59
2021/01/27 09:41:46;;;;;;;4.83;2.50;;;;;;;0.66;86.05;99897.47;10540631;28;20631;-61
2021/01/27 09:46:47;;;;;;;5.80;3.40;;;;;;;0.66;86.81;99885.19;10523607;28;20274;-58
2021/01/27 09:51:52;;;;;;;5.67;2.27;;;;;;;0.76;85.83;99892.78;10521408;28;20675;-57
2021/01/27 09:56:56;;;;;;;4.67;2.70;;;;;;;0.77;85.02;99892.72;10507635;28;20216;-57
2021/01/27 10:01:56;;;;;;;4.00;3.13;;;;;;;0.80;85.36;99897.03;10538400;28;20653;-56
2021/01/27 10:07:18;;;;;;;5.23;2.80;;;;;;;0.82;84.02;99896.09;10523401;28;20277;-56
2021/01/27 10:12:22;;;;;;;2.77;2.30;;;;;;;0.87;84.07;99898.56;10537833;28;20653;-58
2021/01/27 10:17:26;;;;;;;5.90;2.87;;;;;;;0.94;84.58;99887.81;10542223;28;20927;-56
2021/01/27 10:22:30;;;;;;;5.93;3.45;;;;;;;1.03;83.44;99894.53;10509820;28;21280;-57
2021/01/27 10:27:36;;;;;;;3.77;2.40;;;;;;;1.14;82.63;99891.56;10514903;28;20288;-57
2021/01/27 10:32:43;;;;;;;7.50;3.80;;;;;;;1.24;80.93;99898.22;10508275;28;20812;-58
2021/01/27 10:37:44;;;;;;;2.80;2.50;;;;;;;1.20;80.22;99894.88;10513222;28;20255;-58
2021/01/27 10:42:49;;;;;;;7.23;2.50;;;;;;;1.21;80.49;99898.34;10509358;28;20194;-57
2021/01/27 10:48:02;;;;;;;2.50;2.13;;;;;;;1.12;80.38;99909.13;10513410;28;20213;-59
2021/01/27 10:53:05;;;;;;;6.60;2.50;;;;;;;1.14;82.48;99888.94;10508507;28;20206;-57
2021/01/27 10:58:11;;;;;;;3.87;2.47;;;;;;;1.20;81.81;99901.88;10511779;28;20277;-57
2021/01/27 11:03:13;;;;;;;3.77;2.93;;;;;;;1.23;80.88;99891.25;10507738;28;20179;-58
2021/01/27 11:08:22;;;;;;;3.07;2.70;;;;;;;1.23;81.58;99888.63;10511285;28;20229;-57
2021/01/27 11:13:23;;;;;;;2.93;2.30;;;;;;;1.17;81.30;99896.72;10489511;28;20183;-56
2021/01/27 11:18:23;;;;;;;3.37;2.27;;;;;;;1.13;79.53;99900.34;10491406;28;20825;-56
2021/01/27 11:23:24;;;;;;;4.70;2.60;;;;;;;1.11;81.49;99889.03;10506396;28;20283;-57
2021/01/27 11:28:25;;;;;;;3.03;2.40;;;;;;;1.09;82.58;99900.44;10510238;28;20206;-57
2021/01/27 11:33:26;;;;;;;2.50;1.67;;;;;;;1.10;79.35;99898.66;10506365;28;20186;-56
2021/01/27 11:38:26;;;;;;;2.87;1.80;;;;;;;1.13;79.25;99916.09;10491166;28;20221;-57
2021/01/27 11:43:27;;;;;;;4.47;2.43;;;;;;;1.15;79.24;99916.94;10502896;28;20716;-55
2021/01/27 11:48:27;;;;;;;2.33;1.70;;;;;;;1.16;79.12;99910.75;10510727;28;20255;-56
2021/01/27 11:53:28;;;;;;;5.73;2.67;;;;;;;1.18;77.19;99903.69;10507047;28;20182;-56
2021/01/27 11:58:30;;;;;;;3.83;1.87;;;;;;;1.19;77.00;99921.19;10510012;28;20170;-56
2021/01/27 12:03:31;;;;;;;3.20;2.50;;;;;;;1.22;79.19;99919.28;10506086;28;20170;-56
2021/01/27 12:08:32;;;;;;;3.20;1.73;;;;;;;1.23;77.54;99914.91;10510080;28;20238;-57
2021/01/27 12:13:32;;;;;;;3.47;3.13;;;;;;;1.21;76.31;99914.94;10505314;28;20273;-57
2021/01/27 12:18:33;;;;;;;2.50;1.90;;;;;;;1.22;76.10;99931.56;10509093;28;20213;-57
2021/01/27 12:23:34;;;;;;;1.50;1.40;;;;;;;1.25;76.80;99926.22;10505639;28;20237;-57
2021/01/27 12:28:35;;;;;;;1.93;1.70;;;;;;;1.17;76.02;99929.13;10509920;28;20229;-56
2021/01/27 12:33:36;;;;;;;2.73;1.60;;;;;;;1.12;76.34;99909.13;10502695;28;20273;-54
2021/01/27 12:38:37;;;;;;;3.77;2.57;;;;;;;1.09;76.70;99924.09;10509575;28;20182;-56
2021/01/27 12:43:38;;;;;;;5.33;2.60;;;;;;;1.11;78.37;99915.28;10504320;28;20589;-57
2021/01/27 12:48:39;;;;;;;7.10;3.37;;;;;;;1.17;78.83;99923.00;10507820;28;20581;-55
2021/01/27 12:53:39;;;;;;;4.07;3.00;;;;;;;1.25;79.31;99923.59;10504093;28;20654;-55
2021/01/27 12:58:40;;;;;;;4.87;3.20;;;;;;;1.29;78.00;99927.84;10508681;28;20181;-56
2021/01/27 13:03:40;;;;;;;2.70;2.03;;;;;;;1.26;77.40;99928.81;10486503;28;20232;-58
2021/01/27 13:08:41;;;;;;;3.77;2.43;;;;;;;1.28;75.65;99931.38;10507238;28;20264;-55
2021/01/27 13:13:41;;;;;;;3.67;2.63;;;;;;;1.31;76.59;99942.66;10505207;28;20213;-57
2021/01/27 13:18:42;;;;;;;2.97;2.20;;;;;;;1.30;75.40;99950.59;10514514;28;20577;-55
2021/01/27 13:23:47;;;;;;;3.80;2.30;;;;;;;1.29;76.06;99943.63;10514346;28;20220;-57
2021/01/27 13:28:48;;;;;;;3.93;2.30;;;;;;;1.24;76.96;99971.81;10531843;28;20198;-56
2021/01/27 13:33:48;;;;;;;2.40;1.53;;;;;;;1.20;75.43;99957.06;10531801;28;20174;-56
2021/01/27 13:38:49;;;;;;;2.17;1.97;;;;;;;1.18;75.90;99951.00;10532809;28;20264;-56
2021/01/27 13:43:49;;;;;;;3.87;2.37;;;;;;;1.17;78.10;99960.66;10536121;28;20167;-55
2021/01/27 13:48:49;;;;;;;3.13;2.60;;;;;;;1.15;75.86;99961.59;10535800;28;20730;-56
2021/01/27 13:53:50;;;;;;;6.47;2.17;;;;;;;1.11;76.17;99954.72;10518167;28;20182;-56
2021/01/27 13:58:50;;;;;;;4.13;1.73;;;;;;;1.10;76.78;99964.34;10543097;28;20197;-57
2021/01/27 14:03:51;;;;;;;5.50;2.50;;;;;;;1.08;76.73;99959.19;10543027;28;20182;-56
2021/01/27 14:08:51;;;;;;;4.00;2.40;;;;;;;1.11;75.76;99970.47;10542419;28;20230;-56
2021/01/27 14:13:52;;;;;;;4.03;2.20;;;;;;;1.07;74.22;99981.09;10543163;28;20171;-56
2021/01/27 14:18:54;;;;;;;8.00;2.00;;;;;;;1.02;75.32;99967.25;10543043;28;20257;-57
2021/01/27 14:23:55;;;;;;;4.13;2.57;;;;;;;0.97;76.18;99979.63;10527198;28;20266;-55
2021/01/27 14:28:55;;;;;;;7.73;3.13;;;;;;;0.98;77.63;99989.25;10499821;28;20290;-57
2021/01/27 14:33:55;;;;;;;8.50;4.23;;;;;;;0.97;78.11;99987.53;10499360;28;20174;-56
2021/01/27 14:38:56;;;;;;;5.30;3.70;;;;;;;0.99;78.67;99988.34;10500302;28;20178;-56
2021/01/27 14:43:57;;;;;;;7.87;4.40;;;;;;;0.98;78.85;99985.75;10499561;28;20186;-56
2021/01/27 14:48:58;;;;;;;3.40;2.40;;;;;;;0.94;79.57;99985.00;10499326;28;20728;-56
2021/01/27 14:53:58;;;;;;;23.73;3.70;;;;;;;0.95;80.60;99997.25;10499250;28;20262;-57
2021/01/27 14:58:59;;;;;;;7.30;3.67;;;;;;;0.94;79.91;99999.91;10499685;28;20167;-56
2021/01/27 15:03:59;;;;;;;9.10;5.00;;;;;;;0.93;81.49;100003.44;10498309;28;20173;-55
2021/01/27 15:09:00;;;;;;;10.27;4.83;;;;;;;0.89;81.42;100002.66;10500799;28;20350;-55
2021/01/27 15:14:00;;;;;;;8.97;4.90;;;;;;;0.83;83.36;100012.50;10511098;28;20643;-55
2021/01/27 15:19:01;;;;;;;8.53;5.17;;;;;;;0.80;83.43;100004.72;10529364;28;20186;-55
2021/01/27 15:24:01;;;;;;;11.47;5.93;;;;;;;0.81;82.48;100003.81;10536307;28;20175;-56
2021/01/27 15:29:02;;;;;;;8.77;4.43;;;;;;;0.78;83.10;100020.50;10535574;28;20784;-57
2021/01/27 15:34:03;;;;;;;9.87;5.27;;;;;;;0.77;82.73;100017.91;10535852;28;20178;-56
2021/01/27 15:39:04;;;;;;;7.20;4.60;;;;;;;0.74;83.10;100024.13;10539102;28;20167;-57
2021/01/27 15:44:05;;;;;;;7.67;4.20;;;;;;;0.75;83.30;100014.47;10538460;28;20762;-57
2021/01/27 15:49:06;;;;;;;11.30;5.50;;;;;;;0.75;83.28;100025.84;10522724;28;20492;-56
2021/01/27 15:54:06;;;;;;;12.00;6.80;;;;;;;0.72;84.24;100025.97;10506270;28;20197;-56
2021/01/27 15:59:07;;;;;;;10.43;5.47;;;;;;;0.70;84.21;100033.88;10510178;28;20187;-57
2021/01/27 16:04:10;;;;;;;14.80;6.00;;;;;;;0.69;83.45;100020.78;10507828;28;20694;-55
2021/01/27 16:09:13;;;;;;;9.87;6.90;;;;;;;0.70;83.90;100031.25;10509909;28;20245;-57
2021/01/27 16:14:13;;;;;;;13.57;5.63;;;;;;;0.66;83.85;100028.75;10487965;28;20189;-57
2021/01/27 16:19:14;;;;;;;8.37;4.40;;;;;;;0.61;83.12;100023.59;10507794;28;20175;-57
2021/01/27 16:24:16;;;;;;;11.87;3.93;;;;;;;0.61;81.52;100022.75;10504646;28;20202;-55
2021/01/27 16:29:17;;;;;;;6.67;4.20;;;;;;;0.63;82.20;100026.19;10506721;28;20237;-57
2021/01/27 16:34:17;;;;;;;9.50;3.47;;;;;;;0.60;80.32;100031.56;10503866;28;20700;-57
2021/01/27 16:39:19;;;;;;;6.13;3.30;;;;;;;0.55;80.38;100033.44;9980733;28;21132;-55
2021/01/27 16:44:20;;;;;;;2.77;2.53;;;;;;;0.55;79.98;100038.69;10406223;28;20222;-56
2021/01/27 16:49:20;;;;;;;4.20;3.00;;;;;;;0.56;79.89;100035.16;10404151;28;20229;-60
2021/01/27 16:54:21;;;;;;;6.57;3.87;;;;;;;0.56;79.70;100029.91;10400345;28;20333;-58
2021/01/27 16:59:21;;;;;;;5.17;2.93;;;;;;;0.53;79.04;100024.75;10401021;28;20234;-56
2021/01/27 17:04:22;;;;;;;5.53;3.30;;;;;;;0.54;77.80;100042.22;10397555;28;20187;-61
2021/01/27 17:09:22;;;;;;;2.93;2.40;;;;;;;0.52;76.48;100029.13;10403499;28;20249;-59
2021/01/27 17:14:23;;;;;;;2.07;1.87;;;;;;;0.54;75.35;100036.97;10403250;28;20179;-57
2021/01/27 17:19:26;;;;;;;4.90;2.87;;;;;;;0.54;76.70;100026.47;10418675;28;20734;-57
2021/01/27 17:24:28;;;;;;;3.60;2.57;;;;;;;0.53;75.83;100024.75;10416899;28;20172;-56
2021/01/27 17:29:30;;;;;;;6.80;3.00;;;;;;;0.53;75.34;100022.13;10424446;28;20215;-57
2021/01/27 17:34:30;;;;;;;5.20;2.93;;;;;;;0.49;75.47;100020.47;10422356;28;20199;-57
2021/01/27 17:39:31;;;;;;;5.00;2.20;;;;;;;0.47;75.33;100030.19;10406817;28;20188;-57
2021/01/27 17:44:32;;;;;;;4.30;2.47;;;;;;;0.42;75.52;100016.31;10408260;28;20176;-56
2021/01/27 17:49:32;;;;;;;2.73;2.40;;;;;;;0.44;73.89;100036.38;10428537;28;20215;-56
2021/01/27 17:54:33;;;;;;;1.60;1.50;;;;;;;0.46;74.92;100033.69;10425262;28;20634;-56
2021/01/27 17:59:34;;;;;;;5.70;2.17;;;;;;;0.44;74.71;100025.88;10431264;28;20188;-56
2021/01/27 18:04:34;;;;;;;3.57;2.30;;;;;;;0.45;74.71;100034.59;10425745;28;20274;-58
2021/01/27 18:09:35;;;;;;;4.07;2.10;;;;;;;0.41;75.24;100031.19;10430263;28;20664;-57
2021/01/27 18:14:35;;;;;;;2.87;2.30;;;;;;;0.17;74.91;99996.00;10424743;28;20184;-57
2021/01/27 18:19:36;;;;;;;2.13;1.80;;;;;;;0.39;74.09;100026.88;10428896;28;20191;-55
2021/01/27 18:24:36;;;;;;;4.70;2.07;;;;;;;0.41;72.27;100036.44;10423943;28;20218;-57
2021/01/27 18:29:37;;;;;;;6.33;2.60;;;;;;;0.46;72.39;100033.69;10428074;28;20287;-56
2021/01/27 18:34:37;;;;;;;4.40;1.90;;;;;;;0.52;70.33;100039.63;10421063;28;20258;-56
2021/01/27 18:39:38;;;;;;;9.73;3.60;;;;;;;0.59;69.74;100029.84;10428135;28;20312;-56
2021/01/27 18:44:38;;;;;;;8.20;3.90;;;;;;;0.53;70.20;100003.75;10422978;28;20214;-55
2021/01/27 18:49:39;;;;;;;9.17;3.23;;;;;;;0.62;71.49;100025.34;10429373;28;20306;-56
2021/01/27 18:54:39;;;;;;;5.70;3.60;;;;;;;0.58;73.91;100012.34;10423857;28;20539;-56
2021/01/27 18:59:40;;;;;;;5.93;3.10;;;;;;;0.55;74.39;100015.06;10429724;28;20599;-56
2021/01/27 19:04:40;;;;;;;5.03;3.40;;;;;;;0.54;74.56;100014.19;10422348;28;20562;-56
2021/01/27 19:09:41;;;;;;;8.20;3.67;;;;;;;0.52;76.05;100007.25;10426575;28;20288;-58
2021/01/27 19:14:41;;;;;;;5.73;3.47;;;;;;;0.51;75.15;100005.53;10421585;28;20184;-57
2021/01/27 19:19:44;;;;;;;3.30;2.70;;;;;;;0.44;75.58;100009.25;10426476;28;20191;-57
2021/01/27 19:24:45;;;;;;;5.50;2.73;;;;;;;0.38;75.86;100005.03;10421196;28;20180;-58
2021/01/27 19:29:46;;;;;;;8.73;3.97;;;;;;;0.35;71.34;100013.88;10426188;28;20218;-57
2021/01/27 19:34:48;;;;;;;5.07;3.13;;;;;;;0.06;74.57;99969.19;10420666;28;20851;-57
2021/01/27 19:39:49;;;;;;;3.40;2.40;;;;;;;0.18;75.21;100018.69;10421832;28;20207;-57
2021/01/27 19:44:50;;;;;;;7.87;3.50;;;;;;;0.02;76.72;100011.25;10419148;28;20190;-57
2021/01/27 19:49:50;;;;;;;10.10;4.73;;;;;;;-0.13;78.49;100021.28;10425524;28;20218;-57
2021/01/27 19:54:51;;;;;;;6.47;3.27;;;;;;;-0.25;79.32;100013.72;10417436;28;20268;-57
2021/01/27 19:59:53;;;;;;;8.03;3.83;;;;;;;-0.25;79.10;100021.59;10422412;28;20660;-60
2021/01/27 20:04:53;;;;;;;15.57;6.07;;;;;;;-0.21;79.40;100031.09;10416571;28;20738;-63
2021/01/27 20:09:54;;;;;;;27.47;10.20;;;;;;;-0.19;80.40;100028.41;10424613;28;20231;-62
2021/01/27 20:14:55;;;;;;;20.07;7.70;;;;;;;-0.20;83.98;100024.06;10419527;28;20249;-61
2021/01/27 20:20:16;;;;;;;31.00;12.20;;;;;;;-0.19;85.06;100033.66;10425850;28;20207;-59
2021/01/27 20:25:19;;;;;;;20.27;8.23;;;;;;;-0.22;86.75;100028.50;10419071;28;20193;-61
2021/01/27 20:30:22;;;;;;;24.80;11.03;;;;;;;-0.33;87.85;100030.53;10424718;28;20752;-58
2021/01/27 20:35:30;;;;;;;16.47;8.60;;;;;;;-0.52;89.27;100028.38;10416936;28;20318;-59
2021/01/27 20:40:31;;;;;;;20.57;9.77;;;;;;;-0.65;92.73;100029.53;10424044;28;20188;-59
2021/01/27 20:45:32;;;;;;;21.53;9.13;;;;;;;-0.80;93.02;100037.75;10419530;28;20653;-58
2021/01/27 20:50:33;;;;;;;19.17;9.13;;;;;;;-0.89;92.39;100035.34;10448952;28;20235;-58
2021/01/27 20:55:34;;;;;;;28.57;11.47;;;;;;;-1.09;92.40;100026.16;10451138;28;20577;-57
2021/01/27 21:00:34;;;;;;;30.93;13.33;;;;;;;-1.14;93.60;100033.25;10450098;28;20277;-60
2021/01/27 21:05:35;;;;;;;30.93;13.73;;;;;;;-1.21;93.30;100041.28;10449675;28;20178;-58
2021/01/27 21:10:38;;;;;;;26.47;13.67;;;;;;;-1.25;94.18;100047.47;10422596;28;20696;-58
2021/01/27 21:15:44;;;;;;;36.17;14.53;;;;;;;-1.28;95.51;100051.00;10442051;28;20179;-58
2021/01/27 21:20:45;;;;;;;42.50;16.00;;;;;;;-1.20;95.44;100062.19;10446563;28;20544;-58
2021/01/27 21:25:46;;;;;;;39.03;15.20;;;;;;;-1.00;96.29;100063.53;10448825;28;20179;-57
2021/01/27 21:30:47;;;;;;;41.20;15.50;;;;;;;-0.81;96.46;100060.47;10443698;28;20294;-59
2021/01/27 21:35:49;;;;;;;42.77;17.27;;;;;;;-0.65;96.01;100066.22;10444059;28;20621;-60
2021/01/27 21:40:50;;;;;;;47.47;17.27;;;;;;;-0.52;95.65;100062.44;10445928;28;20388;-62
2021/01/27 21:45:51;;;;;;;33.57;15.60;;;;;;;-0.38;94.64;100056.88;10411344;28;20337;-62
2021/01/27 21:50:53;;;;;;;58.77;20.80;;;;;;;-0.29;95.59;100050.53;10418329;28;20216;-59
2021/01/27 21:55:54;;;;;;;36.27;14.53;;;;;;;-0.28;95.46;100047.00;10422671;28;20179;-61
2021/01/27 22:00:55;;;;;;;31.37;14.43;;;;;;;-0.27;94.92;100046.97;10438413;28;20295;-60
2021/01/27 22:05:55;;;;;;;32.93;14.40;;;;;;;-0.24;95.40;100052.13;10411082;28;20175;-61
2021/01/27 22:10:56;;;;;;;35.20;14.43;;;;;;;-0.20;95.32;100052.91;10409181;28;20247;-62
2021/01/27 22:15:56;;;;;;;30.23;14.60;;;;;;;-0.19;94.93;100054.66;10413163;28;20219;-61
2021/01/27 22:20:56;;;;;;;33.60;14.93;;;;;;;-0.18;95.42;100053.75;10418415;28;20283;-60
2021/01/27 22:25:57;;;;;;;35.87;15.13;;;;;;;-0.19;95.57;100054.66;10417569;28;20169;-61
2021/01/27 22:30:57;;;;;;;40.07;15.10;;;;;;;-0.16;96.16;100065.94;10418080;28;20266;-62
2021/01/27 22:35:58;;;;;;;34.60;15.30;;;;;;;-0.14;96.72;100052.78;10417915;28;20192;-61
2021/01/27 22:40:58;;;;;;;30.27;14.47;;;;;;;-0.12;97.11;100056.22;10420292;28;20184;-61
2021/01/27 22:45:59;;;;;;;37.00;15.20;;;;;;;-0.09;97.40;100066.63;10431946;28;20168;-61
2021/01/27 22:51:00;;;;;;;35.63;14.73;;;;;;;-0.09;97.00;100056.13;10457880;28;20261;-62
2021/01/27 22:56:01;;;;;;;28.07;12.77;;;;;;;-0.10;96.73;100049.16;10458436;28;20254;-62
2021/01/27 23:01:01;;;;;;;33.27;15.53;;;;;;;-0.14;97.33;100043.16;10439469;28;20279;-61
2021/01/27 23:06:02;;;;;;;34.47;14.73;;;;;;;-0.09;97.30;100048.25;10439431;28;20275;-58
2021/01/27 23:11:04;;;;;;;34.33;13.93;;;;;;;-0.06;98.32;100046.44;10445660;28;20293;-59
2021/01/27 23:16:04;;;;;;;29.77;13.80;;;;;;;-0.05;97.86;100036.81;10430524;28;20651;-60
2021/01/27 23:21:07;;;;;;;28.97;13.10;;;;;;;-0.06;96.65;100037.69;10442134;28;20176;-61
2021/01/27 23:26:08;;;;;;;23.43;13.33;;;;;;;-0.02;96.76;100042.84;10414870;28;20581;-57
2021/01/27 23:31:13;;;;;;;28.43;12.87;;;;;;;-0.01;97.16;100033.22;10430676;28;20216;-61
2021/01/27 23:36:17;;;;;;;34.13;13.93;;;;;;;0.00;96.97;100034.94;10416716;28;20304;-59
2021/01/27 23:41:18;;;;;;;26.43;12.03;;;;;;;0.01;96.65;100028.75;10437276;28;20276;-58
2021/01/27 23:46:18;;;;;;;23.87;10.53;;;;;;;0.07;95.57;100030.38;10434512;28;20265;-57
2021/01/27 23:51:22;;;;;;;25.73;11.57;;;;;;;0.06;96.20;100026.91;10422432;28;20204;-60
2021/01/27 23:56:22;;;;;;;25.77;12.03;;;;;;;0.08;95.87;100027.72;10452362;28;20224;-58
